SBI7002 UNBB-UNNT
Flight info
| Callsign | SBI7002 |
|---|---|
| Flight time | 0h 28m |
| Altitude | 21000 |
| Route | IPLEN G807 BEGIL |
| Aircraft | E170/M-SDE2E3FGHIRWXY/LB1 |
Departure
| Time | 2026-04-25 17:10 |
|---|---|
| Airport | Barnaul Gherman Titov International Airport (UNBB) |
Arrival
| Time | 2026-04-25 17:38 |
|---|---|
| Airport | Novosibirsk Tolmachevo Airport (UNNT) |
| Time | Latitude | Longitude | Altitude | Speed | Heading |
|---|---|---|---|---|---|
| 2026-04-25 16:52 | 53.36292 | 83.54850 | 837 ft | 0 kts | 68° |
| 2026-04-25 17:05 | 53.36297 | 83.54867 | 837 ft | 5 kts | 67° |
| 2026-04-25 17:05 | 53.36317 | 83.54907 | 829 ft | 3 kts | 3° |
| 2026-04-25 17:06 | 53.36346 | 83.54901 | 836 ft | 7 kts | 4° |
| 2026-04-25 17:06 | 53.36389 | 83.54976 | 840 ft | 12 kts | 66° |
| 2026-04-25 17:06 | 53.36432 | 83.55142 | 833 ft | 18 kts | 68° |
| 2026-04-25 17:06 | 53.36481 | 83.55341 | 841 ft | 19 kts | 67° |
| 2026-04-25 17:07 | 53.36529 | 83.55536 | 839 ft | 15 kts | 68° |
| 2026-04-25 17:07 | 53.36566 | 83.55680 | 835 ft | 11 kts | 69° |
| 2026-04-25 17:07 | 53.36601 | 83.55819 | 837 ft | 15 kts | 66° |
| 2026-04-25 17:07 | 53.36628 | 83.55966 | 837 ft | 10 kts | 50° |
| 2026-04-25 17:08 | 53.36680 | 83.56015 | 835 ft | 8 kts | 2° |
| 2026-04-25 17:08 | 53.36734 | 83.55986 | 839 ft | 9 kts | 334° |
| 2026-04-25 17:08 | 53.36786 | 83.55945 | 836 ft | 6 kts | 333° |
| 2026-04-25 17:08 | 53.36800 | 83.55917 | 834 ft | 1 kts | 276° |
| 2026-04-25 17:09 | 53.36799 | 83.55900 | 840 ft | 2 kts | 262° |
| 2026-04-25 17:09 | 53.36794 | 83.55871 | 840 ft | 0 kts | 246° |
| 2026-04-25 17:09 | 53.36758 | 83.55730 | 835 ft | 46 kts | 247° |
| 2026-04-25 17:09 | 53.36530 | 83.54811 | 837 ft | 123 kts | 247° |
| 2026-04-25 17:10 | 53.36131 | 83.53194 | 1097 ft | 164 kts | 245° |
| 2026-04-25 17:10 | 53.35664 | 83.51448 | 2139 ft | 158 kts | 244° |
| 2026-04-25 17:10 | 53.35193 | 83.49740 | 2856 ft | 174 kts | 249° |
| 2026-04-25 17:10 | 53.35068 | 83.47648 | 3526 ft | 188 kts | 277° |
| 2026-04-25 17:11 | 53.35525 | 83.45454 | 4161 ft | 214 kts | 298° |
| 2026-04-25 17:11 | 53.36568 | 83.43532 | 4944 ft | 231 kts | 320° |
| 2026-04-25 17:11 | 53.38085 | 83.42291 | 5632 ft | 255 kts | 343° |
| 2026-04-25 17:11 | 53.39893 | 83.42213 | 6534 ft | 265 kts | 7° |
| 2026-04-25 17:12 | 53.41718 | 83.42882 | 7304 ft | 278 kts | 10° |
| 2026-04-25 17:12 | 53.43585 | 83.43603 | 8085 ft | 283 kts | 8° |
| 2026-04-25 17:12 | 53.45533 | 83.44238 | 8926 ft | 286 kts | 6° |
| 2026-04-25 17:12 | 53.47513 | 83.44831 | 9795 ft | 290 kts | 6° |
| 2026-04-25 17:13 | 53.49526 | 83.45423 | 10475 ft | 302 kts | 6° |
| 2026-04-25 17:13 | 53.50234 | 83.45633 | 10594 ft | 309 kts | 6° |
| 2026-04-25 17:13 | 53.53939 | 83.46875 | 11200 ft | 343 kts | 8° |
| 2026-04-25 17:13 | 53.56293 | 83.47804 | 11889 ft | 351 kts | 9° |
| 2026-04-25 17:14 | 53.58677 | 83.48760 | 12734 ft | 354 kts | 9° |
| 2026-04-25 17:14 | 53.61096 | 83.49691 | 13636 ft | 357 kts | 8° |
| 2026-04-25 17:14 | 53.63535 | 83.50621 | 14494 ft | 362 kts | 8° |
| 2026-04-25 17:14 | 53.66009 | 83.51567 | 15311 ft | 366 kts | 8° |
| 2026-04-25 17:15 | 53.68510 | 83.52531 | 16124 ft | 371 kts | 8° |
| 2026-04-25 17:15 | 53.71044 | 83.53515 | 16876 ft | 376 kts | 8° |
| 2026-04-25 17:15 | 53.73603 | 83.54562 | 17650 ft | 381 kts | 8° |
| 2026-04-25 17:15 | 53.76190 | 83.55652 | 18420 ft | 386 kts | 9° |
| 2026-04-25 17:16 | 53.78781 | 83.56773 | 19069 ft | 390 kts | 9° |
| 2026-04-25 17:16 | 53.81456 | 83.57971 | 19736 ft | 394 kts | 9° |
| 2026-04-25 17:16 | 53.84085 | 83.59181 | 20367 ft | 398 kts | 10° |
| 2026-04-25 17:16 | 53.86765 | 83.60448 | 21000 ft | 402 kts | 10° |
| 2026-04-25 17:17 | 53.89492 | 83.61786 | 21133 ft | 413 kts | 12° |
| 2026-04-25 17:17 | 53.92245 | 83.63244 | 21143 ft | 416 kts | 12° |
| 2026-04-25 17:17 | 53.95009 | 83.64726 | 21142 ft | 417 kts | 12° |
| 2026-04-25 17:17 | 53.97783 | 83.66204 | 21147 ft | 418 kts | 12° |
| 2026-04-25 17:18 | 54.00560 | 83.67677 | 21149 ft | 418 kts | 12° |
| 2026-04-25 17:18 | 54.03343 | 83.69152 | 21147 ft | 418 kts | 12° |
| 2026-04-25 17:18 | 54.06122 | 83.70624 | 21157 ft | 418 kts | 12° |
| 2026-04-25 17:18 | 54.08888 | 83.72138 | 21158 ft | 421 kts | 16° |
| 2026-04-25 17:19 | 54.11530 | 83.74366 | 21165 ft | 426 kts | 25° |
| 2026-04-25 17:19 | 54.14090 | 83.76949 | 21166 ft | 427 kts | 26° |
| 2026-04-25 17:19 | 54.16638 | 83.79566 | 21141 ft | 426 kts | 26° |
| 2026-04-25 17:19 | 54.19187 | 83.82166 | 21136 ft | 427 kts | 26° |
| 2026-04-25 17:20 | 54.21735 | 83.84751 | 21144 ft | 427 kts | 26° |
| 2026-04-25 17:20 | 54.24299 | 83.87345 | 21140 ft | 427 kts | 26° |
| 2026-04-25 17:20 | 54.26803 | 83.89882 | 20891 ft | 419 kts | 26° |
| 2026-04-25 17:20 | 54.29276 | 83.92396 | 20579 ft | 409 kts | 25° |
| 2026-04-25 17:21 | 54.31703 | 83.94859 | 20336 ft | 403 kts | 25° |
| 2026-04-25 17:21 | 54.34113 | 83.97303 | 20089 ft | 402 kts | 25° |
| 2026-04-25 17:21 | 54.36504 | 83.99731 | 19851 ft | 400 kts | 25° |
| 2026-04-25 17:21 | 54.38891 | 84.02159 | 19608 ft | 398 kts | 25° |
| 2026-04-25 17:22 | 54.41279 | 84.04591 | 19366 ft | 397 kts | 25° |
| 2026-04-25 17:22 | 54.42087 | 84.05416 | 19285 ft | 397 kts | 25° |
| 2026-04-25 17:22 | 54.46083 | 84.09164 | 18866 ft | 386 kts | 12° |
| 2026-04-25 17:22 | 54.48670 | 84.09673 | 18635 ft | 366 kts | 347° |
| 2026-04-25 17:23 | 54.51005 | 84.08335 | 18405 ft | 348 kts | 322° |
| 2026-04-25 17:23 | 54.52764 | 84.05617 | 18145 ft | 337 kts | 304° |
| 2026-04-25 17:23 | 54.54031 | 84.02310 | 18287 ft | 331 kts | 299° |
| 2026-04-25 17:23 | 54.55330 | 83.98941 | 17788 ft | 340 kts | 300° |
| 2026-04-25 17:24 | 54.56651 | 83.95613 | 17325 ft | 334 kts | 300° |
| 2026-04-25 17:24 | 54.57953 | 83.92319 | 16855 ft | 330 kts | 300° |
| 2026-04-25 17:24 | 54.59213 | 83.89094 | 16425 ft | 327 kts | 300° |
| 2026-04-25 17:24 | 54.60472 | 83.85844 | 15998 ft | 325 kts | 300° |
| 2026-04-25 17:25 | 54.61724 | 83.82598 | 15555 ft | 323 kts | 300° |
| 2026-04-25 17:25 | 54.62967 | 83.79366 | 15126 ft | 321 kts | 300° |
| 2026-04-25 17:25 | 54.64190 | 83.76182 | 14699 ft | 315 kts | 300° |
| 2026-04-25 17:25 | 54.65383 | 83.73074 | 14271 ft | 306 kts | 299° |
| 2026-04-25 17:26 | 54.66546 | 83.70033 | 13873 ft | 302 kts | 299° |
| 2026-04-25 17:26 | 54.67695 | 83.67018 | 13488 ft | 299 kts | 299° |
| 2026-04-25 17:26 | 54.68836 | 83.64022 | 13070 ft | 298 kts | 300° |
| 2026-04-25 17:26 | 54.69969 | 83.61044 | 12692 ft | 295 kts | 300° |
| 2026-04-25 17:27 | 54.71096 | 83.58082 | 12295 ft | 294 kts | 300° |
| 2026-04-25 17:27 | 54.72212 | 83.55137 | 11906 ft | 293 kts | 299° |
| 2026-04-25 17:27 | 54.73194 | 83.52056 | 11523 ft | 291 kts | 293° |
| 2026-04-25 17:27 | 54.73474 | 83.51030 | 11398 ft | 291 kts | 292° |
| 2026-04-25 17:28 | 54.74891 | 83.45735 | 10742 ft | 290 kts | 293° |
| 2026-04-25 17:28 | 54.75765 | 83.42601 | 10354 ft | 289 kts | 294° |
| 2026-04-25 17:28 | 54.76642 | 83.39509 | 9968 ft | 283 kts | 295° |
| 2026-04-25 17:28 | 54.77505 | 83.36495 | 9605 ft | 276 kts | 295° |
| 2026-04-25 17:29 | 54.78348 | 83.33547 | 9237 ft | 270 kts | 294° |
| 2026-04-25 17:29 | 54.78896 | 83.31630 | 8986 ft | 267 kts | 294° |
| 2026-04-25 17:29 | 54.79712 | 83.28775 | 8651 ft | 262 kts | 294° |
| 2026-04-25 17:29 | 54.80772 | 83.25058 | 8195 ft | 256 kts | 294° |
| 2026-04-25 17:30 | 54.81554 | 83.22308 | 7853 ft | 253 kts | 294° |
| 2026-04-25 17:30 | 54.82077 | 83.20468 | 7620 ft | 251 kts | 294° |
| 2026-04-25 17:30 | 54.82845 | 83.17762 | 7238 ft | 250 kts | 293° |
| 2026-04-25 17:30 | 54.83610 | 83.15055 | 6867 ft | 250 kts | 293° |
| 2026-04-25 17:31 | 54.84569 | 83.12608 | 6575 ft | 251 kts | 313° |
| 2026-04-25 17:31 | 54.86104 | 83.11027 | 6244 ft | 260 kts | 338° |
| 2026-04-25 17:31 | 54.87854 | 83.10254 | 5893 ft | 265 kts | 343° |
| 2026-04-25 17:31 | 54.89694 | 83.09597 | 5481 ft | 267 kts | 344° |
| 2026-04-25 17:32 | 54.91479 | 83.08952 | 5148 ft | 263 kts | 343° |
| 2026-04-25 17:32 | 54.93116 | 83.07829 | 4746 ft | 245 kts | 316° |
| 2026-04-25 17:32 | 54.94266 | 83.05802 | 4466 ft | 229 kts | 306° |
| 2026-04-25 17:32 | 54.95307 | 83.03681 | 4215 ft | 232 kts | 305° |
| 2026-04-25 17:33 | 54.96349 | 83.01554 | 3849 ft | 228 kts | 306° |
| 2026-04-25 17:33 | 54.97365 | 82.99525 | 3538 ft | 217 kts | 306° |
| 2026-04-25 17:33 | 54.98336 | 82.97593 | 3287 ft | 209 kts | 305° |
| 2026-04-25 17:33 | 54.99284 | 82.95708 | 3012 ft | 205 kts | 305° |
| 2026-04-25 17:34 | 55.00209 | 82.93871 | 2742 ft | 199 kts | 304° |
| 2026-04-25 17:34 | 55.01116 | 82.92074 | 2489 ft | 196 kts | 305° |
| 2026-04-25 17:34 | 55.02002 | 82.90316 | 2323 ft | 187 kts | 304° |
| 2026-04-25 17:34 | 55.02841 | 82.88648 | 2152 ft | 179 kts | 301° |
| 2026-04-25 17:35 | 55.03197 | 82.86790 | 1933 ft | 151 kts | 258° |
| 2026-04-25 17:35 | 55.03043 | 82.85054 | 2104 ft | 146 kts | 255° |
| 2026-04-25 17:35 | 55.02875 | 82.83249 | 2117 ft | 153 kts | 256° |
| 2026-04-25 17:35 | 55.02710 | 82.81389 | 1985 ft | 158 kts | 255° |
| 2026-04-25 17:36 | 55.02548 | 82.79558 | 1781 ft | 148 kts | 255° |
| 2026-04-25 17:36 | 55.02390 | 82.77800 | 1584 ft | 147 kts | 256° |
| 2026-04-25 17:36 | 55.02234 | 82.76051 | 1398 ft | 148 kts | 256° |
| 2026-04-25 17:36 | 55.02080 | 82.74329 | 1130 ft | 143 kts | 258° |
| 2026-04-25 17:37 | 55.01913 | 82.72625 | 906 ft | 139 kts | 258° |
| 2026-04-25 17:37 | 55.01770 | 82.70945 | 737 ft | 141 kts | 259° |
| 2026-04-25 17:37 | 55.01619 | 82.69219 | 565 ft | 144 kts | 258° |
| 2026-04-25 17:37 | 55.01466 | 82.67518 | 382 ft | 138 kts | 259° |
| 2026-04-25 17:38 | 55.01333 | 82.66067 | 370 ft | 96 kts | 263° |
| 2026-04-25 17:38 | 55.01282 | 82.65496 | 371 ft | 46 kts | 258° |
| 2026-04-25 17:38 | 55.01243 | 82.65089 | 371 ft | 16 kts | 243° |
| 2026-04-25 17:38 | 55.01143 | 82.65067 | 370 ft | 16 kts | 169° |
| 2026-04-25 17:39 | 55.01032 | 82.65099 | 371 ft | 17 kts | 171° |
| 2026-04-25 17:39 | 55.00968 | 82.65117 | 371 ft | 9 kts | 171° |
| 2026-04-25 17:39 | 55.00898 | 82.65140 | 371 ft | 11 kts | 154° |
| 2026-04-25 17:39 | 55.00886 | 82.65252 | 371 ft | 11 kts | 85° |
| 2026-04-25 17:40 | 55.00895 | 82.65396 | 371 ft | 13 kts | 82° |
| 2026-04-25 17:40 | 55.00908 | 82.65566 | 371 ft | 15 kts | 82° |
| 2026-04-25 17:40 | 55.00925 | 82.65759 | 371 ft | 17 kts | 82° |
| 2026-04-25 17:40 | 55.00942 | 82.65937 | 371 ft | 14 kts | 81° |
| 2026-04-25 17:41 | 55.00960 | 82.66103 | 371 ft | 13 kts | 71° |
| 2026-04-25 17:41 | 55.00997 | 82.66257 | 371 ft | 15 kts | 69° |
| 2026-04-25 17:41 | 55.01022 | 82.66384 | 371 ft | 8 kts | 70° |
| 2026-04-25 17:41 | 55.01039 | 82.66485 | 371 ft | 9 kts | 90° |
| 2026-04-25 17:42 | 55.01000 | 82.66535 | 371 ft | 7 kts | 172° |
| 2026-04-25 17:42 | 55.00969 | 82.66542 | 371 ft | 3 kts | 171° |
| 2026-04-25 17:42 | 55.00964 | 82.66544 | 371 ft | 0 kts | 171° |